AirNav   TITAN Aviation Fuels
 
 1541 users online  

94MN Ag Spray Inc Airport
Barnesville, Minnesota, USA

GOING TO BARNESVILLE?


FAA INFORMATION EFFECTIVE 03 NOVEMBER 2022

Location

FAA Identifier: 94MN
Lat/Long: 46-34-35.8570N 096-30-43.2540W
46-34.597617N 096-30.720900W
46.5766269,-96.5120150
(estimated)
Elevation: 960 ft. / 293 m (estimated)
Variation: 06E (1985)
From city: 6 miles SW of BARNESVILLE, MN
Time zone: UTC -6 (UTC -5 during Daylight Saving Time)
Zip code: 56514

Airport Operations

Airport use: Private use. Permission required prior to landing
Activation date: 11/1979
Control tower: no
ARTCC: MINNEAPOLIS CENTER
FSS: PRINCETON FLIGHT SERVICE STATION
Attendance: UNATNDD
Wind indicator: yes
Segmented circle: no

Airport Communications

WX AWOS-3 at JKJ (17 nm N): 120.0 (218-287-5049)

Nearby radio navigation aids

VOR radial/distance  VOR name  Freq  Var
FARr118/17.5FARGO VOR/DME116.2009E
FFMr315/22.6FERGUS FALLS VOR/DME110.4005E
DTLr238/29.7DETROIT LAKES VOR/DME111.2002E

Airport Services

Runway Information

Runway 17/35

Dimensions: 3000 x 50 ft. / 914 x 15 m
Surface: turf
RUNWAY 17  RUNWAY 35
Traffic pattern: leftleft
Obstructions: 50 ft. silos, 1300 ft. from runwaynone

Airport Ownership and Management from official FAA records

Ownership: Privately-owned
Owner: GARY JERGER
3758 43RD AVE N
MOORHEAD, MN 56560
Phone 218-233-0546
Manager: GARY JERGER
3758 43RD AVE N
MOORHEAD, MN 56560
Phone 218-233-0546

Airport Operational Statistics

Aircraft based on the field: 1
Single engine airplanes: 1
    

Additional Remarks

OWNER REQUESTS ARPT NOT BE CHARTED.
FOR CD CTC MINNEAPOLIS ARTCC AT 651-463-5588.

Instrument Procedures

There are no published instrument procedures at 94MN.

Some nearby airports with instrument procedures:

KJKJ - Moorhead Municipal Airport/Florence Klingensmith Field (17 nm N)
04Y - Hawley Municipal Airport (20 nm N)
KBWP - Harry Stern Airport (20 nm S)
K74 - Robert Odegaard Field Airport (21 nm W)
KFFM - Fergus Falls Municipal Airport-Einar Mickelson Field (23 nm SE)
 
Loc | Ops | Rwys | IFR | FBO | Links
Com | Nav | Svcs | Stats | Notes
Area around 94MN (Ag Spray Inc Airport)
 
Road maps at: MapQuest Bing Google
 
Aerial photo
No photo
 
Sectional chart

 
Airport distance calculator
Flying to Ag Spray Inc Airport? Find the distance to fly.

From to 94MN

Sunrise and sunset
Times for 29-Nov-2022
 Local
(UTC-6)
 Zulu
(UTC)
Morning civil twilight07:1413:14
Sunrise07:4813:48
Sunset16:4122:41
Evening civil twilight17:1523:15

Current date and time
Zulu (UTC)  29-Nov-2022 19:32:54
Local (UTC-6)  29-Nov-2022 13:32:54
 
METAR
KJKJ 
17nm N 
291915Z AUTO 29014KT 10SM CLR M06/M11 A2969 RMK AO2 TSNO
KBWP 
20nm S 
291915Z AUTO 30013G19KT 10SM SCT024 M06/M11 A2970 RMK AO2
KFFM 
24nm SE 
291915Z AUTO 30017KT 10SM SCT022 M07/M12 A2966 RMK AO2
KFAR 
25nm NW 
291853Z 27015KT 10SM CLR M07/M12 A2969 RMK AO2 SLP071 T10671117
KDTL 
30nm NE 
291915Z AUTO 29007G14KT 10SM OVC020 M08/M12 A2964 RMK AO2
TAF
KFAR 
25nm NW 
291720Z 2918/3018 28014KT P6SM BKN100 FM292100 28013G25KT P6SM BKN025 FM300300 30015G25KT P6SM BKN040 FM300700 30016G25KT P6SM BKN030 FM301000 30016G25KT P6SM BKN035
NOTAMs
Click for the latest NOTAMs
NOTAMs are issued by the DoD/FAA and will open in a separate window not controlled by AirNav.

 

 
 

Would you like to see your business listed on this page?

 If your business provides an interesting product or service to pilots, flight crews, aircraft, or users of the Ag Spray Inc Airport, you should consider listing it here.  To start the listing process, click on the button below
 
Add a business
 

Other Pages about Ag Spray Inc Airport

Update a link
 
Copyright © AirNav, LLC. All rights reserved. Privacy Policy  Contact